Iliamna, Alaska
Current Conditions -  °F | °C
As of 6:53 PM on Monday 22 Dec 2014 (Local Time) from PAIL Reporting Station
Overcast Overcast  
Wind Chill: 17°   Ceiling: 3600
Heat Index: 24°   Visibility: 10mi
Dew Point: 20°   Wind: 6mph
Humidity: 84%   Direction: 330°NNW
Pressure: 29.83"   Gusts: NA
Location:  59.76°N, 154.83°W
Report Text: PAIL 230353Z 33005KT 10SM OVC036 M04/M07 A2983 RMK AO2 SLP107 T10441067
Loading
Personal Weather Stations






























Interactive Weather Map New forecast layout! Learn more

10-Day Weather Forecast

Advertisements
Track Severe Weather on mobile